Time;durP1;ratioP1;P1;durP2;ratioP2;P2;SDS_P1;SDS_P2;PMS_P1;PMS_P2;Temp;Humidity;BMP_temperature;BMP_pressure;BME280_temperature;BME280_humidity;BME280_pressure;Samples;Min_cycle;Max_cycle;Signal;HPM_P1;HPM_P2
2023/08/10 00:02:14;;;;;;;2.45;1.30;;;;;;;19.22;87.94;100481.88;5012670;28;20029;-72
2023/08/10 00:04:39;;;;;;;2.33;1.30;;;;;;;18.92;88.30;100424.25;5012201;28;20054;-72
2023/08/10 00:07:05;;;;;;;4.75;1.35;;;;;;;19.27;87.89;100471.41;5012432;28;20437;-72
2023/08/10 00:09:31;;;;;;;4.22;1.30;;;;;;;19.22;88.13;100474.88;5012528;28;20037;-72
2023/08/10 00:11:57;;;;;;;2.85;1.50;;;;;;;19.07;89.22;100470.50;5012097;28;20026;-72
2023/08/10 00:14:22;;;;;;;4.60;1.70;;;;;;;19.25;88.65;100476.63;5012195;28;20057;-72
2023/08/10 00:16:48;;;;;;;4.82;1.70;;;;;;;19.15;88.31;100456.56;5012366;28;20164;-72
2023/08/10 00:19:13;;;;;;;2.60;1.60;;;;;;;18.80;88.15;100410.25;5011800;28;20030;-72
2023/08/10 00:21:39;;;;;;;2.88;1.70;;;;;;;18.85;89.12;100447.75;5011904;28;20025;-72
2023/08/10 00:24:04;;;;;;;4.30;1.40;;;;;;;18.50;90.72;100451.97;5012056;28;20026;-72
2023/08/10 00:26:30;;;;;;;2.45;1.40;;;;;;;18.40;92.19;100484.19;5011995;28;20045;-72
2023/08/10 00:28:56;;;;;;;3.60;1.40;;;;;;;17.84;92.95;100413.28;5011147;28;20026;-72
2023/08/10 00:31:21;;;;;;;2.47;1.40;;;;;;;18.30;93.15;100487.63;5011837;28;20112;-72
2023/08/10 00:33:46;;;;;;;3.38;1.63;;;;;;;18.10;93.97;100488.38;5025501;28;20044;-72
2023/08/10 00:36:12;;;;;;;2.63;1.42;;;;;;;18.13;93.62;100477.94;5031587;28;20030;-72
2023/08/10 00:38:38;;;;;;;3.13;1.58;;;;;;;18.18;93.57;100463.16;5031762;28;20029;-72
2023/08/10 00:41:04;;;;;;;3.50;1.80;;;;;;;18.25;93.22;100461.44;5031215;28;20470;-72
2023/08/10 00:43:30;;;;;;;7.88;2.10;;;;;;;18.21;93.48;100460.56;5031200;28;20503;-72
2023/08/10 00:45:56;;;;;;;2.42;1.75;;;;;;;17.92;93.06;100395.94;5031318;28;20124;-72
2023/08/10 00:48:23;;;;;;;4.82;1.75;;;;;;;18.38;92.35;100452.81;5030985;28;20149;-72
2023/08/10 00:50:49;;;;;;;3.83;1.70;;;;;;;18.30;92.82;100453.66;5031118;28;20500;-72
2023/08/10 00:53:17;;;;;;;4.38;2.20;;;;;;;17.87;92.38;100376.75;5013388;28;20036;-72
2023/08/10 00:55:43;;;;;;;4.47;2.47;;;;;;;18.35;91.82;100434.50;5031204;28;20099;-72
2023/08/10 00:58:13;;;;;;;7.15;3.85;;;;;;;18.07;91.46;100374.28;5030960;28;20025;-72
2023/08/10 01:00:38;;;;;;;6.50;3.38;;;;;;;18.52;91.13;100445.03;5013267;28;20071;-72
2023/08/10 01:03:05;;;;;;;8.05;3.40;;;;;;;18.61;90.95;100438.09;5030883;28;20052;-72
2023/08/10 01:05:37;;;;;;;8.20;3.85;;;;;;;18.66;90.73;100432.00;5013006;28;20104;-72
2023/08/10 01:08:11;;;;;;;5.85;3.33;;;;;;;18.85;89.57;100438.13;5031189;28;20068;-72
2023/08/10 01:10:44;;;;;;;6.78;3.55;;;;;;;18.66;88.65;100373.59;5030794;28;20108;-72
2023/08/10 01:13:31;;;;;;;5.50;3.03;;;;;;;19.27;87.64;100432.16;5030606;28;20030;-72
2023/08/10 01:16:00;;;;;;;7.07;3.20;;;;;;;19.15;88.00;100439.13;5030978;28;20026;-72
2023/08/10 01:18:27;;;;;;;7.07;3.50;;;;;;;18.98;88.18;100444.31;5030728;28;20025;-72
2023/08/10 01:20:58;;;;;;;7.93;3.53;;;;;;;18.65;88.28;100375.31;5030918;28;20041;-72
2023/08/10 01:23:41;;;;;;;6.65;3.30;;;;;;;19.04;88.72;100440.81;5030696;28;20394;-72
2023/08/10 01:26:08;;;;;;;7.15;2.63;;;;;;;18.87;89.13;100435.53;5030766;28;20060;-72
2023/08/10 01:28:34;;;;;;;5.65;2.60;;;;;;;18.85;89.26;100435.53;5030595;28;20022;-72
2023/08/10 01:31:01;;;;;;;6.60;2.95;;;;;;;18.85;89.06;100418.97;5030493;28;20543;-72
2023/08/10 01:33:26;;;;;;;6.80;3.00;;;;;;;19.06;88.30;100426.88;5030602;28;20029;-72
2023/08/10 01:35:52;;;;;;;4.57;2.75;;;;;;;19.17;87.85;100429.50;5030330;28;20076;-72
2023/08/10 01:38:18;;;;;;;5.30;2.80;;;;;;;18.60;87.18;100316.94;5029900;28;20530;-72
2023/08/10 01:40:43;;;;;;;5.65;2.58;;;;;;;19.13;87.32;100435.63;5029439;28;20038;-72
2023/08/10 01:43:09;;;;;;;6.43;2.92;;;;;;;18.84;88.54;100446.88;5030612;28;20543;-72
2023/08/10 01:45:34;;;;;;;6.85;3.88;;;;;;;18.59;90.17;100441.56;5030420;28;20025;-72
2023/08/10 01:48:11;;;;;;;8.60;4.32;;;;;;;18.28;92.01;100443.19;5030695;28;20025;-72
2023/08/10 01:50:43;;;;;;;7.40;3.55;;;;;;;18.20;92.18;100431.81;5030573;28;20048;-72
2023/08/10 01:53:12;;;;;;;8.65;4.45;;;;;;;18.10;92.43;100430.88;5030290;28;20434;-72
2023/08/10 01:55:39;;;;;;;8.70;4.03;;;;;;;17.85;93.58;100437.69;5030461;28;20030;-72
2023/08/10 01:58:04;;;;;;;9.73;3.60;;;;;;;17.69;94.32;100445.38;5030302;28;20029;-72
2023/08/10 02:00:30;;;;;;;6.57;3.33;;;;;;;17.31;94.50;100401.63;5030158;28;20029;-72
2023/08/10 02:02:56;;;;;;;6.13;2.75;;;;;;;16.85;96.70;100386.38;5030215;28;20036;-72
2023/08/10 02:05:21;;;;;;;5.63;2.33;;;;;;;17.47;95.80;100444.38;5030071;28;20037;-72
2023/08/10 02:07:49;;;;;;;6.50;3.00;;;;;;;17.73;94.93;100433.22;5030378;28;20026;-72
2023/08/10 02:10:15;;;;;;;7.50;3.55;;;;;;;17.50;93.56;100357.41;5030271;28;20056;-72
2023/08/10 02:12:40;;;;;;;12.38;4.53;;;;;;;17.98;93.16;100418.66;5030377;28;20064;-72
2023/08/10 02:15:06;;;;;;;11.75;5.18;;;;;;;18.09;92.50;100422.19;5011556;28;20049;-72
2023/08/10 02:17:35;;;;;;;10.40;4.80;;;;;;;18.08;91.83;100428.28;5030062;28;20025;-72
2023/08/10 02:20:14;;;;;;;13.35;4.07;;;;;;;18.02;92.13;100423.00;5029981;28;20026;-72
2023/08/10 02:22:45;;;;;;;9.73;4.68;;;;;;;17.46;93.37;100349.53;5030001;28;20041;-71
2023/08/10 02:25:10;;;;;;;10.07;4.45;;;;;;;17.79;94.22;100410.66;5030177;28;20031;-72
2023/08/10 02:27:36;;;;;;;7.60;3.90;;;;;;;17.66;95.15;100407.94;5030035;28;20101;-72
2023/08/10 02:30:02;;;;;;;8.98;3.60;;;;;;;17.68;96.23;100427.13;5030332;28;20072;-72
2023/08/10 02:32:28;;;;;;;6.72;3.78;;;;;;;17.65;97.42;100433.19;5029849;28;20456;-72
2023/08/10 02:34:53;;;;;;;7.07;3.10;;;;;;;17.57;97.16;100412.25;5029955;28;20064;-72
2023/08/10 02:37:18;;;;;;;6.93;3.30;;;;;;;17.73;97.24;100428.91;5030096;28;20695;-72
2023/08/10 02:39:44;;;;;;;8.70;3.60;;;;;;;17.80;97.35;100427.19;5030029;28;20037;-72
2023/08/10 02:42:10;;;;;;;10.60;3.88;;;;;;;18.00;95.42;100422.13;5029944;28;20024;-72
2023/08/10 02:44:36;;;;;;;9.02;3.80;;;;;;;18.14;93.65;100401.28;5029777;28;20403;-72
2023/08/10 02:47:02;;;;;;;7.53;3.72;;;;;;;18.19;94.15;100419.59;5030293;28;20041;-72
2023/08/10 02:49:27;;;;;;;7.38;3.50;;;;;;;18.15;94.85;100415.25;5030103;28;20034;-72
2023/08/10 02:51:53;;;;;;;8.32;3.45;;;;;;;18.07;94.76;100423.06;5031418;28;20076;-72
2023/08/10 02:54:18;;;;;;;10.70;3.45;;;;;;;18.01;95.05;100420.41;5033555;28;20573;-72
2023/08/10 02:56:44;;;;;;;8.43;3.63;;;;;;;18.15;94.86;100400.44;5033497;28;20065;-72
2023/08/10 02:59:09;;;;;;;7.15;3.45;;;;;;;18.22;93.86;100402.22;5033374;28;20120;-72
2023/08/10 03:01:35;;;;;;;9.50;3.10;;;;;;;18.41;93.63;100428.44;5033087;28;20034;-72
2023/08/10 03:04:00;;;;;;;7.63;3.05;;;;;;;18.37;93.58;100426.69;5033545;28;20049;-71
2023/08/10 03:06:27;;;;;;;9.85;3.13;;;;;;;18.26;94.11;100429.22;5033577;28;20103;-71
2023/08/10 03:08:52;;;;;;;4.72;2.53;;;;;;;18.20;94.04;100440.50;5033257;28;20061;-72
2023/08/10 03:11:18;;;;;;;9.15;3.13;;;;;;;18.07;94.29;100442.19;5033189;28;20065;-72
2023/08/10 03:13:43;;;;;;;13.07;3.75;;;;;;;18.07;94.41;100433.50;5033086;28;20022;-72
2023/08/10 03:16:09;;;;;;;12.13;4.20;;;;;;;17.72;94.66;100392.31;5033237;28;20492;-71
2023/08/10 03:18:35;;;;;;;10.80;4.30;;;;;;;18.02;94.13;100440.41;5033242;28;20025;-72
2023/08/10 03:21:00;;;;;;;15.02;5.38;;;;;;;18.01;94.65;100441.31;5033127;28;20091;-72
2023/08/10 03:23:26;;;;;;;14.98;6.32;;;;;;;17.90;94.69;100436.81;5033023;28;20089;-72
2023/08/10 03:25:52;;;;;;;16.08;5.47;;;;;;;17.81;94.13;100423.72;5033123;28;20041;-72
2023/08/10 03:28:17;;;;;;;10.73;4.88;;;;;;;17.99;93.71;100433.44;5032699;28;20053;-72
2023/08/10 03:30:43;;;;;;;16.67;3.60;;;;;;;18.16;92.78;100425.69;5032852;28;20029;-72
2023/08/10 03:33:09;;;;;;;5.53;2.58;;;;;;;18.18;91.77;100423.97;5032861;28;20026;-72
2023/08/10 03:35:34;;;;;;;4.93;2.20;;;;;;;17.78;91.56;100374.06;4981732;28;20037;-72
2023/08/10 03:38:00;;;;;;;12.02;2.60;;;;;;;18.14;91.85;100421.34;5032795;28;20504;-72
2023/08/10 03:40:26;;;;;;;8.48;2.42;;;;;;;18.19;91.23;100430.91;5013765;28;20393;-72
2023/08/10 03:42:51;;;;;;;5.72;2.35;;;;;;;18.34;90.54;100427.50;5012826;28;20029;-72
2023/08/10 03:45:16;;;;;;;6.32;2.63;;;;;;;17.84;90.12;100319.28;5012547;28;20030;-72
2023/08/10 03:47:42;;;;;;;8.15;2.20;;;;;;;18.54;90.86;100432.84;5012948;28;20536;-72
2023/08/10 03:50:08;;;;;;;9.65;2.50;;;;;;;18.59;91.00;100431.13;5012691;28;20116;-72
2023/08/10 03:52:33;;;;;;;5.35;2.72;;;;;;;18.58;91.30;100426.75;5012460;28;20032;-72
2023/08/10 03:54:59;;;;;;;8.13;2.92;;;;;;;18.56;91.16;100430.22;5012605;28;20037;-72
2023/08/10 03:57:25;;;;;;;8.75;2.83;;;;;;;18.38;92.01;100437.13;5012532;28;20025;-72
2023/08/10 03:59:50;;;;;;;7.47;2.67;;;;;;;18.33;92.32;100427.50;4961772;28;20041;-72
2023/08/10 04:02:16;;;;;;;9.40;3.42;;;;;;;18.27;92.79;100424.00;5012213;28;20022;-72
2023/08/10 04:04:41;;;;;;;10.32;3.25;;;;;;;18.32;93.27;100425.75;5012248;28;20058;-71
2023/08/10 04:07:07;;;;;;;7.55;3.10;;;;;;;17.87;93.89;100376.75;5012789;28;20030;-72
2023/08/10 04:09:33;;;;;;;7.75;3.70;;;;;;;18.13;95.32;100428.31;5012055;28;20665;-72
2023/08/10 04:11:59;;;;;;;7.15;2.88;;;;;;;18.07;96.14;100431.75;5012521;28;20026;-72
2023/08/10 04:14:47;;;;;;;7.75;2.97;;;;;;;18.01;95.84;100423.88;5012007;28;20095;-71
2023/08/10 04:17:15;;;;;;;7.57;2.97;;;;;;;17.86;96.96;100437.69;4938376;29;20471;-72
2023/08/10 04:19:40;;;;;;;6.75;2.78;;;;;;;17.95;96.83;100431.69;4951272;29;20131;-72
2023/08/10 04:22:06;;;;;;;12.48;3.33;;;;;;;17.98;96.69;100428.22;4951292;29;20039;-72
2023/08/10 04:24:31;;;;;;;5.82;2.78;;;;;;;17.99;96.02;100430.81;4951326;29;20036;-72
2023/08/10 04:26:57;;;;;;;9.65;2.63;;;;;;;17.99;96.46;100429.97;4951244;29;20043;-72
2023/08/10 04:29:26;;;;;;;7.00;2.88;;;;;;;18.04;96.32;100431.72;4951421;29;20471;-72
2023/08/10 04:31:52;;;;;;;7.40;2.60;;;;;;;18.01;97.97;100415.19;4951280;29;20066;-72
2023/08/10 04:34:17;;;;;;;7.82;2.78;;;;;;;17.94;97.98;100424.69;4951116;29;20079;-72
2023/08/10 04:36:42;;;;;;;9.77;3.45;;;;;;;17.81;97.83;100421.13;4951397;29;20146;-71
2023/08/10 04:39:08;;;;;;;10.45;2.90;;;;;;;17.29;98.77;100366.81;4951058;29;20043;-72
2023/08/10 04:41:33;;;;;;;7.30;3.08;;;;;;;17.45;100.00;100435.66;4950853;29;20118;-71
2023/08/10 04:43:59;;;;;;;9.40;3.65;;;;;;;17.71;100.00;100446.28;4950978;29;20050;-72
2023/08/10 04:46:24;;;;;;;13.55;3.70;;;;;;;17.72;99.70;100441.94;4950986;29;20208;-72
2023/08/10 04:48:50;;;;;;;5.57;3.38;;;;;;;17.63;100.00;100451.47;4996951;28;20176;-72
2023/08/10 04:51:15;;;;;;;10.52;3.10;;;;;;;17.31;100.00;100412.06;4960944;28;20468;-72
2023/08/10 04:53:41;;;;;;;5.32;3.03;;;;;;;17.54;100.00;100460.94;5011782;28;20030;-72
2023/08/10 04:56:07;;;;;;;7.75;2.95;;;;;;;17.75;100.00;100447.19;4976540;28;20408;-72
2023/08/10 04:58:32;;;;;;;4.22;2.67;;;;;;;17.86;100.00;100431.59;5011429;28;20026;-72
2023/08/10 05:00:58;;;;;;;5.57;2.85;;;;;;;18.14;100.00;100443.09;5011125;28;20033;-72
2023/08/10 05:03:24;;;;;;;5.70;2.60;;;;;;;18.33;99.79;100453.66;5011636;28;20044;-72
2023/08/10 05:05:51;;;;;;;5.65;2.95;;;;;;;18.53;98.86;100462.47;5011189;28;20449;-72
2023/08/10 05:08:16;;;;;;;4.57;2.50;;;;;;;18.36;98.54;100412.72;5011085;28;20025;-72
2023/08/10 05:10:45;;;;;;;5.38;2.40;;;;;;;18.69;98.87;100454.66;5011275;28;20146;-72
2023/08/10 05:13:10;;;;;;;5.47;2.28;;;;;;;18.79;98.87;100447.72;5011196;28;20026;-72
2023/08/10 05:15:36;;;;;;;6.00;2.78;;;;;;;18.86;96.71;100454.72;5011173;28;20471;-72
2023/08/10 05:18:02;;;;;;;6.15;2.85;;;;;;;18.97;96.74;100467.88;5011293;28;20029;-72
2023/08/10 05:20:27;;;;;;;7.60;3.10;;;;;;;19.07;96.92;100467.00;4960258;28;20046;-72
2023/08/10 05:22:53;;;;;;;7.90;2.90;;;;;;;19.20;95.76;100470.50;5011332;28;20033;-72
2023/08/10 05:25:18;;;;;;;3.17;2.17;;;;;;;19.27;95.33;100459.19;5010879;28;20440;-72
2023/08/10 05:27:44;;;;;;;5.82;2.42;;;;;;;19.35;94.54;100462.69;4976189;28;20034;-72
2023/08/10 05:30:13;;;;;;;4.80;2.25;;;;;;;19.07;94.64;100404.22;5011143;28;20489;-72
2023/08/10 05:32:40;;;;;;;5.68;2.63;;;;;;;19.46;96.30;100473.16;5010988;28;20026;-72
2023/08/10 05:35:07;;;;;;;3.83;2.30;;;;;;;19.47;94.14;100463.56;5011321;28;20036;-72
2023/08/10 05:37:33;;;;;;;4.95;2.33;;;;;;;19.58;93.80;100464.44;5011102;28;20100;-72
2023/08/10 05:40:00;;;;;;;6.38;2.58;;;;;;;19.68;92.73;100454.84;5010525;28;20026;-72
2023/08/10 05:42:26;;;;;;;5.38;2.47;;;;;;;19.84;93.82;100461.81;4976092;28;20041;-72
2023/08/10 05:44:51;;;;;;;4.65;2.70;;;;;;;19.93;92.65;100454.84;5010887;28;20539;-72
2023/08/10 05:47:17;;;;;;;8.65;3.40;;;;;;;20.00;92.76;100460.06;5010930;28;20469;-72
2023/08/10 05:49:43;;;;;;;5.25;2.70;;;;;;;20.16;91.78;100457.38;4960002;28;20038;-72
2023/08/10 05:52:08;;;;;;;10.55;3.33;;;;;;;20.35;91.72;100458.22;5010896;28;20080;-72
2023/08/10 05:54:34;;;;;;;6.18;2.80;;;;;;;20.49;91.68;100452.91;5010333;28;20033;-72
2023/08/10 05:57:00;;;;;;;6.18;2.83;;;;;;;20.63;91.11;100465.97;5010821;28;20033;-72
2023/08/10 05:59:26;;;;;;;6.28;2.83;;;;;;;20.64;90.68;100465.94;5011090;28;20037;-72
2023/08/10 06:01:51;;;;;;;7.43;3.00;;;;;;;20.66;90.22;100461.56;5010574;28;20034;-72
2023/08/10 06:04:18;;;;;;;6.85;3.20;;;;;;;20.37;91.94;100411.88;5010671;28;20066;-72
2023/08/10 06:06:43;;;;;;;8.75;4.00;;;;;;;20.72;90.03;100459.84;5010660;28;20122;-72
2023/08/10 06:09:10;;;;;;;10.27;5.20;;;;;;;20.61;90.79;100457.22;5010660;28;20109;-72
2023/08/10 06:11:35;;;;;;;9.93;4.32;;;;;;;20.60;90.10;100458.09;5010386;28;20128;-72
2023/08/10 06:14:00;;;;;;;5.95;3.42;;;;;;;20.59;91.32;100459.00;5010621;28;20525;-72
2023/08/10 06:16:27;;;;;;;4.32;2.60;;;;;;;20.56;91.13;100456.38;5010690;28;20026;-72
2023/08/10 06:18:52;;;;;;;4.60;2.47;;;;;;;20.64;92.01;100446.72;5010437;28;20112;-72
2023/08/10 06:21:18;;;;;;;9.88;3.45;;;;;;;20.53;95.13;100417.91;5010302;28;20117;-72
2023/08/10 06:23:44;;;;;;;8.82;2.95;;;;;;;20.59;93.91;100438.00;4975426;28;20038;-72
2023/08/10 06:26:11;;;;;;;7.57;3.05;;;;;;;20.75;93.52;100450.19;5011056;28;20030;-72
2023/08/10 06:28:36;;;;;;;4.07;2.70;;;;;;;20.87;92.92;100453.63;5014137;28;20085;-72
2023/08/10 06:31:01;;;;;;;7.63;2.88;;;;;;;21.01;92.49;100441.31;5014379;28;20026;-72
2023/08/10 06:33:27;;;;;;;6.53;2.90;;;;;;;21.08;93.02;100431.63;4996614;28;20048;-72
2023/08/10 06:35:53;;;;;;;6.22;3.00;;;;;;;21.16;92.66;100428.06;5014125;28;20022;-72
2023/08/10 06:38:18;;;;;;;5.80;2.33;;;;;;;21.31;91.09;100424.44;5013849;28;20057;-72
2023/08/10 06:40:44;;;;;;;4.50;2.20;;;;;;;21.44;91.42;100432.22;5014089;28;20057;-72
2023/08/10 06:43:09;;;;;;;4.43;2.58;;;;;;;21.34;90.28;100406.03;5013788;28;20045;-72
2023/08/10 06:45:35;;;;;;;7.20;2.58;;;;;;;21.28;88.31;100371.97;5014153;28;20026;-72
2023/08/10 06:48:00;;;;;;;5.38;2.15;;;;;;;21.68;87.99;100433.78;5014190;28;20037;-72
2023/08/10 06:50:26;;;;;;;5.95;2.10;;;;;;;21.17;90.00;100340.56;5013791;28;20030;-72
2023/08/10 06:52:52;;;;;;;8.45;2.40;;;;;;;21.84;87.89;100438.91;5013472;28;20477;-72
2023/08/10 06:55:17;;;;;;;3.20;1.90;;;;;;;21.88;86.66;100452.00;5013728;28;20032;-72
2023/08/10 06:57:44;;;;;;;4.30;1.92;;;;;;;21.94;85.35;100456.31;5013760;28;20420;-72
2023/08/10 07:00:13;;;;;;;4.57;1.98;;;;;;;22.00;85.87;100453.63;5013455;28;20112;-72
2023/08/10 07:02:39;;;;;;;2.80;1.85;;;;;;;22.01;84.44;100452.72;5013790;28;20441;-72
2023/08/10 07:05:06;;;;;;;5.10;1.90;;;;;;;21.96;85.56;100436.16;5013167;28;20076;-72
2023/08/10 07:07:32;;;;;;;3.53;2.15;;;;;;;22.03;83.12;100443.09;5013700;28;20022;-72
2023/08/10 07:09:57;;;;;;;3.67;1.60;;;;;;;22.02;83.08;100450.97;5013386;28;20026;-72
2023/08/10 07:12:23;;;;;;;5.45;1.80;;;;;;;21.98;83.93;100464.16;5013431;28;20033;-72
2023/08/10 07:14:49;;;;;;;5.45;1.95;;;;;;;22.03;81.47;100471.13;4995341;28;20030;-72
2023/08/10 07:17:14;;;;;;;4.55;2.10;;;;;;;22.12;82.44;100471.03;5013229;28;20022;-72
2023/08/10 07:19:40;;;;;;;5.65;1.83;;;;;;;22.06;81.84;100463.22;5013118;28;20049;-72
2023/08/10 07:22:06;;;;;;;4.00;1.67;;;;;;;21.98;81.72;100458.91;5013549;28;20067;-72
2023/08/10 07:24:31;;;;;;;7.10;1.80;;;;;;;21.60;84.36;100415.47;5013209;28;20046;-72
2023/08/10 07:26:57;;;;;;;4.28;1.75;;;;;;;21.97;81.46;100461.56;5013038;28;20030;-72
2023/08/10 07:29:23;;;;;;;3.08;1.50;;;;;;;22.08;79.16;100457.03;5013005;28;20024;-72
2023/08/10 07:31:49;;;;;;;4.65;1.60;;;;;;;22.23;78.82;100452.47;5013405;28;20036;-72
2023/08/10 07:34:14;;;;;;;2.60;1.58;;;;;;;21.99;72.37;100388.78;5012896;28;20481;-72
2023/08/10 07:36:40;;;;;;;3.42;1.42;;;;;;;22.39;72.32;100446.22;4977723;28;20100;-72
2023/08/10 07:39:05;;;;;;;3.17;1.48;;;;;;;22.36;73.10;100421.66;5012917;28;20541;-72
2023/08/10 07:41:31;;;;;;;2.78;1.70;;;;;;;22.72;71.67;100451.06;5012701;28;20109;-72
2023/08/10 07:43:56;;;;;;;6.10;1.80;;;;;;;22.92;71.31;100458.66;5013012;28;20535;-72
2023/08/10 07:46:22;;;;;;;8.10;1.90;;;;;;;23.01;70.48;100442.72;4975195;28;20049;-72
2023/08/10 07:48:47;;;;;;;3.25;1.65;;;;;;;23.08;66.95;100433.84;5012934;28;20034;-72
2023/08/10 07:51:13;;;;;;;3.38;1.88;;;;;;;23.40;63.84;100458.84;5012461;28;20088;-72
2023/08/10 07:53:38;;;;;;;2.42;1.60;;;;;;;23.49;68.12;100451.66;5012867;28;20026;-72
2023/08/10 07:56:04;;;;;;;6.47;1.77;;;;;;;23.66;61.47;100452.22;5012884;28;20029;-72
2023/08/10 07:58:29;;;;;;;3.58;1.50;;;;;;;23.92;64.46;100452.72;5012416;28;20026;-72
2023/08/10 08:00:55;;;;;;;2.25;1.60;;;;;;;23.93;63.42;100450.03;5012543;28;20026;-72
2023/08/10 08:03:21;;;;;;;3.83;1.70;;;;;;;23.52;64.88;100393.66;5012511;28;20449;-72
2023/08/10 08:05:47;;;;;;;2.75;1.70;;;;;;;23.97;63.28;100466.69;5012423;28;20050;-73
2023/08/10 08:08:13;;;;;;;3.55;1.58;;;;;;;23.97;64.55;100467.53;5012604;28;20382;-73
2023/08/10 08:10:38;;;;;;;4.15;2.00;;;;;;;23.94;65.84;100441.25;4994916;28;20131;-73
2023/08/10 08:13:06;;;;;;;7.40;1.90;;;;;;;23.81;66.50;100413.31;5012636;28;20041;-73
2023/08/10 08:15:31;;;;;;;1.88;1.30;;;;;;;24.19;56.36;100446.03;5012297;28;20029;-73
2023/08/10 08:18:37;;;;;;;4.43;1.40;;;;;;;24.37;54.23;100443.03;5012134;28;20033;-73
2023/08/10 08:21:03;;;;;;;1.42;1.30;;;;;;;24.38;55.04;100413.09;5012205;28;20121;-73
2023/08/10 08:23:29;;;;;;;3.35;1.60;;;;;;;24.93;59.62;100446.25;5012378;28;20104;-73
2023/08/10 08:25:54;;;;;;;2.22;1.30;;;;;;;24.99;52.98;100433.78;5012050;28;20481;-73
2023/08/10 08:28:20;;;;;;;3.58;1.45;;;;;;;25.20;55.18;100445.59;5012162;28;20077;-73
2023/08/10 08:30:45;;;;;;;1.95;1.40;;;;;;;25.34;54.65;100453.19;5011725;28;20056;-73
2023/08/10 08:33:12;;;;;;;3.35;1.48;;;;;;;25.37;55.65;100440.84;5012188;28;20028;-73
2023/08/10 08:35:38;;;;;;;2.22;1.25;;;;;;;25.47;51.18;100442.34;4961939;28;20048;-73
2023/08/10 08:38:05;;;;;;;1.10;1.00;;;;;;;25.35;50.50;100440.84;5011842;28;20507;-73
2023/08/10 08:40:31;;;;;;;2.17;1.08;;;;;;;25.31;51.16;100439.16;5011740;28;20405;-73
2023/08/10 08:42:59;;;;;;;1.80;1.00;;;;;;;25.32;48.48;100435.63;5012011;28;20037;-73
2023/08/10 08:45:24;;;;;;;2.33;1.10;;;;;;;25.37;51.07;100438.19;5011503;28;20485;-72
2023/08/10 08:47:51;;;;;;;8.65;1.40;;;;;;;25.31;49.87;100429.50;5011726;28;20030;-73
2023/08/10 08:50:17;;;;;;;2.53;1.20;;;;;;;25.39;49.06;100436.41;5011242;28;20551;-73
2023/08/10 08:52:45;;;;;;;9.75;1.40;;;;;;;25.46;50.22;100430.91;5011610;28;20029;-73
2023/08/10 08:55:12;;;;;;;1.88;1.27;;;;;;;25.51;50.39;100417.59;4994042;28;20045;-73
2023/08/10 08:57:38;;;;;;;2.13;1.10;;;;;;;25.51;50.43;100420.22;5011970;28;20123;-73
2023/08/10 09:00:04;;;;;;;1.98;1.02;;;;;;;25.41;52.00;100424.00;5011030;28;20034;-73
2023/08/10 09:02:30;;;;;;;2.50;1.20;;;;;;;25.38;46.92;100432.00;5011763;28;20513;-73
2023/08/10 09:04:59;;;;;;;1.85;1.20;;;;;;;25.36;47.93;100434.66;5011530;28;20133;-73
2023/08/10 09:07:26;;;;;;;2.38;0.90;;;;;;;25.41;50.14;100434.56;5011357;28;20489;-73
2023/08/10 09:09:52;;;;;;;2.92;0.88;;;;;;;25.32;44.60;100399.53;5011340;28;20065;-73
2023/08/10 09:12:34;;;;;;;0.82;0.80;;;;;;;25.48;45.57;100428.22;5011445;28;20116;-73
2023/08/10 09:15:06;;;;;;;1.95;1.02;;;;;;;25.27;44.62;100416.38;5011238;28;20508;-73
2023/08/10 09:17:33;;;;;;;2.92;1.02;;;;;;;25.31;47.08;100429.50;5011201;28;20070;-73
2023/08/10 09:19:59;;;;;;;1.52;1.00;;;;;;;25.23;47.16;100409.44;5011050;28;20030;-71
2023/08/10 09:22:34;;;;;;;2.03;1.00;;;;;;;25.27;46.24;100425.19;5011113;28;20025;-73
2023/08/10 09:25:10;;;;;;;1.52;1.27;;;;;;;25.02;43.69;100416.97;5011421;28;20026;-73
2023/08/10 09:27:36;;;;;;;1.42;1.00;;;;;;;24.93;47.32;100414.56;5009931;28;20092;-73
2023/08/10 09:30:03;;;;;;;4.75;1.48;;;;;;;24.91;48.23;100379.41;5010865;28;20033;-73
2023/08/10 09:32:29;;;;;;;1.20;1.10;;;;;;;25.11;48.19;100405.31;4976302;28;20113;-73
2023/08/10 09:34:55;;;;;;;2.05;1.10;;;;;;;25.07;48.50;100383.38;5028884;28;20195;-73
2023/08/10 09:37:22;;;;;;;4.68;1.23;;;;;;;25.24;49.46;100395.34;5012922;28;20032;-73
2023/08/10 09:39:53;;;;;;;2.45;0.95;;;;;;;25.02;47.34;100383.53;5030383;28;20021;-72
2023/08/10 09:42:20;;;;;;;2.80;1.30;;;;;;;25.23;48.06;100396.25;5030703;28;20022;-73
2023/08/10 09:44:48;;;;;;;1.30;0.90;;;;;;;25.26;45.39;100386.47;5030368;28;20052;-73
2023/08/10 09:47:15;;;;;;;2.63;1.10;;;;;;;25.27;46.38;100392.59;5030747;28;20022;-73
2023/08/10 09:50:05;;;;;;;2.80;1.10;;;;;;;25.00;45.68;100340.44;5030370;28;20036;-73
2023/08/10 09:52:30;;;;;;;1.05;0.80;;;;;;;25.46;45.03;100395.66;5030551;28;20091;-73
2023/08/10 09:54:57;;;;;;;1.65;1.05;;;;;;;25.41;45.80;100381.72;5030363;28;20137;-73
2023/08/10 09:57:27;;;;;;;2.63;1.08;;;;;;;25.54;43.66;100392.84;5030454;28;20109;-73
2023/08/10 09:59:53;;;;;;;3.03;1.00;;;;;;;25.70;44.58;100394.16;5030395;28;20442;-73
2023/08/10 10:02:20;;;;;;;2.03;1.30;;;;;;;25.76;43.13;100385.22;5032803;28;20029;-73
2023/08/10 10:04:46;;;;;;;2.00;1.00;;;;;;;25.56;44.13;100369.84;5034422;28;20422;-71
2023/08/10 10:07:12;;;;;;;1.67;1.20;;;;;;;25.45;43.42;100351.66;5034829;28;20029;-74
2023/08/10 10:09:40;;;;;;;3.22;0.90;;;;;;;25.73;44.11;100390.56;5034883;28;20040;-73
2023/08/10 10:12:11;;;;;;;4.32;1.20;;;;;;;25.69;45.31;100381.84;5034289;28;20030;-73
2023/08/10 10:14:40;;;;;;;1.70;1.20;;;;;;;25.78;43.07;100383.38;5034200;28;20437;-73
2023/08/10 10:17:06;;;;;;;1.92;1.15;;;;;;;25.89;42.94;100389.22;5034090;28;20505;-73
2023/08/10 10:19:33;;;;;;;2.00;1.05;;;;;;;25.88;43.74;100362.81;5034271;28;20029;-73
2023/08/10 10:22:00;;;;;;;1.70;1.10;;;;;;;25.95;40.90;100367.03;5034218;28;20025;-73
2023/08/10 10:24:31;;;;;;;3.72;1.20;;;;;;;26.05;40.50;100368.50;5034257;28;20030;-74
2023/08/10 10:27:11;;;;;;;2.25;1.02;;;;;;;26.10;41.59;100366.63;5033796;28;20025;-73
2023/08/10 10:29:46;;;;;;;1.20;1.00;;;;;;;26.13;40.98;100365.66;5033727;28;20040;-73
2023/08/10 10:32:16;;;;;;;3.33;1.40;;;;;;;25.94;40.94;100315.91;5034092;28;20045;-74
2023/08/10 10:34:43;;;;;;;1.40;1.00;;;;;;;26.30;38.42;100367.81;5034176;28;20092;-74
2023/08/10 10:37:13;;;;;;;2.35;1.05;;;;;;;26.41;37.53;100364.84;5033798;28;20044;-73
2023/08/10 10:39:45;;;;;;;2.13;1.30;;;;;;;26.38;38.11;100371.09;5033813;28;20049;-74
2023/08/10 10:42:12;;;;;;;1.38;0.95;;;;;;;26.41;38.29;100355.09;5033768;28;20037;-73
2023/08/10 10:45:00;;;;;;;2.03;0.95;;;;;;;26.53;37.63;100359.19;5033871;28;20017;-73
2023/08/10 10:47:39;;;;;;;4.40;1.15;;;;;;;26.60;38.33;100344.81;5033683;28;20473;-74
2023/08/10 10:50:27;;;;;;;4.22;1.30;;;;;;;26.69;37.92;100358.69;5033471;28;20108;-74
2023/08/10 10:52:58;;;;;;;2.28;0.98;;;;;;;26.71;38.42;100346.25;5033733;28;20037;-73
2023/08/10 10:55:29;;;;;;;3.08;1.00;;;;;;;26.67;37.54;100334.00;5033533;28;20029;-74
2023/08/10 10:57:54;;;;;;;2.17;1.08;;;;;;;26.79;39.66;100354.84;5033430;28;20057;-72
2023/08/10 11:00:22;;;;;;;1.30;0.82;;;;;;;26.84;37.64;100342.31;5033231;28;20068;-72
2023/08/10 11:02:49;;;;;;;3.03;1.20;;;;;;;26.99;35.38;100340.09;5033044;28;20104;-74
2023/08/10 11:05:17;;;;;;;2.22;1.02;;;;;;;26.92;36.76;100311.16;5033293;28;20054;-72
2023/08/10 11:07:48;;;;;;;1.00;0.90;;;;;;;27.33;35.29;100342.44;5033474;28;20032;-71
2023/08/10 11:10:15;;;;;;;1.60;1.10;;;;;;;27.43;36.79;100343.03;5033330;28;20063;-72
2023/08/10 11:12:42;;;;;;;1.00;0.90;;;;;;;27.49;35.97;100349.88;5033133;28;20028;-73
2023/08/10 11:15:10;;;;;;;2.60;1.10;;;;;;;27.60;36.54;100348.59;5033148;28;20412;-73
2023/08/10 11:17:37;;;;;;;2.00;1.20;;;;;;;27.71;34.86;100357.94;5033032;28;20033;-71
2023/08/10 11:20:14;;;;;;;1.67;1.05;;;;;;;27.66;35.53;100336.88;5032984;28;20091;-72
2023/08/10 11:22:43;;;;;;;1.05;0.95;;;;;;;27.67;35.81;100341.28;5033064;28;20091;-71
2023/08/10 11:25:13;;;;;;;;;;;;;;;27.63;36.84;100342.31;5033513;28;20026;-72